Time;durP1;ratioP1;P1;durP2;ratioP2;P2;SDS_P1;SDS_P2;PMS_P1;PMS_P2;Temp;Humidity;BMP_temperature;BMP_pressure;BME280_temperature;BME280_humidity;BME280_pressure;Samples;Min_cycle;Max_cycle;Signal;HPM_P1;HPM_P2
2021/12/30 00:00:15;;;;;;;0.30;0.10;;;6.10;99.90;;;;;;5090314;28;20471;-88
2021/12/30 00:02:42;;;;;;;0.30;0.10;;;6.10;99.90;;;;;;5075412;28;20458;-88
2021/12/30 00:05:12;;;;;;;0.30;0.10;;;6.10;99.90;;;;;;5073827;28;20983;-89
2021/12/30 00:07:39;;;;;;;0.30;0.10;;;6.10;99.90;;;;;;5071750;28;20461;-88
2021/12/30 00:10:07;;;;;;;0.30;0.20;;;6.10;99.90;;;;;;5069869;28;20523;-88
2021/12/30 00:12:34;;;;;;;0.30;0.10;;;6.10;99.90;;;;;;5062066;28;20446;-89
2021/12/30 00:15:01;;;;;;;0.30;0.20;;;6.10;99.90;;;;;;5064238;28;20460;-88
2021/12/30 00:17:28;;;;;;;1.03;0.77;;;6.10;99.90;;;;;;5058508;28;20571;-89
2021/12/30 00:19:55;;;;;;;0.30;0.10;;;6.00;99.90;;;;;;5052495;28;20455;-88
2021/12/30 00:22:24;;;;;;;0.30;0.20;;;6.00;99.90;;;;;;5066224;28;20451;-87
2021/12/30 00:24:51;;;;;;;0.30;0.10;;;6.10;99.90;;;;;;5069746;28;20448;-88
2021/12/30 00:27:18;;;;;;;0.30;0.20;;;6.10;99.90;;;;;;5071658;28;20500;-89
2021/12/30 00:29:45;;;;;;;0.30;0.20;;;6.10;99.90;;;;;;5065954;28;21052;-89
2021/12/30 00:32:12;;;;;;;0.30;0.10;;;6.00;99.90;;;;;;5062110;28;20534;-89
2021/12/30 00:34:39;;;;;;;0.30;0.10;;;6.00;99.90;;;;;;5062440;28;20492;-88
2021/12/30 00:37:06;;;;;;;0.30;0.10;;;6.00;99.90;;;;;;5058899;28;20480;-88
2021/12/30 00:39:35;;;;;;;0.30;0.10;;;6.00;99.90;;;;;;5050176;28;20466;-87
2021/12/30 00:42:02;;;;;;;0.30;0.10;;;6.00;99.90;;;;;;5060191;28;20484;-89
2021/12/30 00:44:29;;;;;;;0.30;0.10;;;6.00;99.90;;;;;;5069552;28;20927;-88
2021/12/30 00:46:57;;;;;;;0.30;0.10;;;6.00;99.90;;;;;;5070365;28;20476;-87
2021/12/30 00:49:24;;;;;;;0.30;0.10;;;5.90;99.90;;;;;;5070822;28;20444;-88
2021/12/30 00:51:52;;;;;;;0.30;0.10;;;5.90;99.90;;;;;;5069946;28;20711;-88
2021/12/30 00:54:19;;;;;;;0.30;0.17;;;5.90;99.90;;;;;;5069542;28;20475;-90
2021/12/30 00:56:47;;;;;;;0.30;0.10;;;5.90;99.90;;;;;;5069634;28;20558;-89
2021/12/30 00:59:14;;;;;;;0.30;0.13;;;5.90;99.90;;;;;;5067735;28;20445;-88
2021/12/30 01:01:41;;;;;;;0.30;0.10;;;5.90;99.90;;;;;;5049828;28;20448;-88
2021/12/30 01:04:08;;;;;;;0.30;0.20;;;5.90;99.90;;;;;;5057978;28;20460;-89
2021/12/30 01:06:36;;;;;;;0.30;0.10;;;5.90;99.90;;;;;;5070085;28;20543;-87
2021/12/30 01:09:05;;;;;;;0.43;0.40;;;5.80;99.90;;;;;;5065504;28;20452;-89
2021/12/30 01:11:32;;;;;;;0.30;0.20;;;5.80;99.90;;;;;;5070109;28;20919;-89
2021/12/30 01:14:04;;;;;;;0.30;0.20;;;5.80;99.90;;;;;;5068560;28;20525;-89
2021/12/30 01:16:41;;;;;;;0.30;0.10;;;5.90;99.90;;;;;;5068474;28;20461;-88
2021/12/30 01:19:22;;;;;;;0.30;0.10;;;5.90;99.90;;;;;;5064515;28;20503;-88
2021/12/30 01:21:52;;;;;;;0.30;0.10;;;5.90;99.90;;;;;;5070703;28;20445;-89
2021/12/30 01:24:19;;;;;;;0.30;0.10;;;5.80;99.90;;;;;;5068619;28;20434;-89
2021/12/30 01:26:46;;;;;;;0.30;0.10;;;5.80;99.90;;;;;;5054902;28;20550;-88
2021/12/30 01:29:15;;;;;;;0.30;0.20;;;5.80;99.90;;;;;;5072395;28;20990;-88
2021/12/30 01:31:42;;;;;;;0.30;0.10;;;5.90;99.90;;;;;;5078892;28;20472;-88
2021/12/30 01:34:09;;;;;;;0.30;0.20;;;5.90;99.90;;;;;;5092583;28;20441;-89
2021/12/30 01:36:36;;;;;;;0.30;0.10;;;5.90;99.90;;;;;;5090845;28;20475;-88
2021/12/30 01:39:04;;;;;;;0.30;0.10;;;5.90;99.90;;;;;;5086650;28;20468;-88
2021/12/30 01:41:31;;;;;;;0.30;0.10;;;5.80;99.90;;;;;;5073751;28;20528;-88
2021/12/30 01:43:58;;;;;;;0.30;0.10;;;5.90;99.90;;;;;;5070365;28;20444;-88
2021/12/30 01:46:26;;;;;;;0.30;0.10;;;5.90;99.90;;;;;;5070083;28;20444;-88
2021/12/30 01:48:53;;;;;;;0.30;0.10;;;5.80;99.90;;;;;;5064216;28;20439;-88
2021/12/30 01:51:20;;;;;;;0.30;0.10;;;5.70;99.90;;;;;;5069448;28;20458;-89
2021/12/30 01:53:47;;;;;;;0.30;0.10;;;5.70;99.90;;;;;;5078239;28;20442;-88
2021/12/30 01:56:15;;;;;;;0.30;0.10;;;5.70;99.90;;;;;;5054444;28;20462;-88
2021/12/30 01:58:42;;;;;;;0.30;0.10;;;5.80;99.90;;;;;;5049567;28;20522;-89
2021/12/30 02:01:09;;;;;;;0.30;0.10;;;5.90;99.90;;;;;;5049444;28;20969;-89
2021/12/30 02:03:37;;;;;;;0.30;0.10;;;5.90;99.90;;;;;;5056249;28;20578;-87
2021/12/30 02:06:04;;;;;;;0.30;0.10;;;5.90;99.90;;;;;;5069741;28;20502;-88
2021/12/30 02:08:31;;;;;;;0.30;0.10;;;5.90;99.90;;;;;;5069133;28;20453;-88
2021/12/30 02:10:58;;;;;;;0.30;0.10;;;5.90;99.90;;;;;;5067175;28;20989;-89
2021/12/30 02:13:26;;;;;;;0.30;0.10;;;5.90;99.90;;;;;;5068562;28;20525;-89
2021/12/30 02:16:00;;;;;;;0.30;0.17;;;6.00;99.90;;;;;;5067847;28;20522;-89
2021/12/30 02:18:27;;;;;;;0.30;0.20;;;6.00;99.90;;;;;;5068939;28;20484;-89
2021/12/30 02:20:57;;;;;;;0.30;0.10;;;6.00;99.90;;;;;;5054766;28;20446;-90
2021/12/30 02:23:26;;;;;;;0.30;0.10;;;6.00;99.90;;;;;;5065554;28;20468;-89
2021/12/30 02:25:56;;;;;;;0.33;0.23;;;6.10;99.90;;;;;;5068190;28;20926;-89
2021/12/30 02:28:25;;;;;;;0.30;0.10;;;6.10;99.90;;;;;;5066433;28;20524;-89
2021/12/30 02:30:53;;;;;;;0.30;0.13;;;6.10;99.90;;;;;;5053942;28;20425;-89
2021/12/30 02:33:21;;;;;;;0.30;0.10;;;6.10;99.90;;;;;;5052648;28;20436;-90
2021/12/30 02:35:48;;;;;;;0.30;0.10;;;6.00;99.90;;;;;;5063470;28;20484;-90
2021/12/30 02:38:17;;;;;;;0.30;0.10;;;6.10;99.90;;;;;;5066224;28;20498;-90
2021/12/30 02:40:48;;;;;;;0.30;0.20;;;6.10;99.90;;;;;;5058410;28;20497;-89
2021/12/30 02:43:18;;;;;;;0.30;0.10;;;6.10;99.90;;;;;;5065495;28;20948;-88
2021/12/30 02:45:46;;;;;;;0.30;0.10;;;6.00;99.90;;;;;;5064651;28;20470;-90
2021/12/30 02:48:14;;;;;;;0.30;0.20;;;6.10;99.90;;;;;;5065701;28;21387;-88
2021/12/30 02:50:41;;;;;;;0.30;0.20;;;6.10;99.90;;;;;;5067746;28;20529;-89
2021/12/30 02:53:08;;;;;;;0.30;0.10;;;6.00;99.90;;;;;;5069219;28;20497;-89
2021/12/30 02:55:37;;;;;;;0.40;0.20;;;6.10;99.90;;;;;;5068198;28;20541;-89
2021/12/30 02:58:04;;;;;;;0.30;0.10;;;6.10;99.90;;;;;;5072334;28;20568;-88
2021/12/30 03:00:31;;;;;;;0.40;0.20;;;6.00;99.90;;;;;;5071703;28;20489;-89
2021/12/30 03:02:59;;;;;;;0.30;0.10;;;6.00;99.90;;;;;;5067152;28;20514;-88
2021/12/30 03:05:26;;;;;;;0.30;0.10;;;6.10;99.90;;;;;;5071358;28;20453;-88
2021/12/30 03:07:53;;;;;;;0.30;0.10;;;6.20;99.90;;;;;;5068771;28;20437;-90
2021/12/30 03:10:23;;;;;;;0.30;0.10;;;6.20;99.90;;;;;;5078609;28;20440;-88
2021/12/30 03:12:55;;;;;;;0.30;0.10;;;6.20;99.90;;;;;;5097801;28;20437;-89
2021/12/30 03:15:23;;;;;;;0.30;0.10;;;6.20;99.90;;;;;;5094492;28;20468;-89
2021/12/30 03:17:50;;;;;;;0.30;0.10;;;6.20;99.90;;;;;;5090641;28;20470;-89
2021/12/30 03:20:17;;;;;;;0.30;0.10;;;6.20;99.90;;;;;;5067790;28;20490;-88
2021/12/30 03:22:45;;;;;;;0.30;0.13;;;6.30;99.90;;;;;;5070353;28;20446;-89
2021/12/30 03:25:15;;;;;;;0.30;0.10;;;6.30;99.90;;;;;;5073152;28;20441;-90
2021/12/30 03:27:43;;;;;;;0.30;0.20;;;6.30;99.90;;;;;;5072423;28;20486;-89
2021/12/30 03:30:14;;;;;;;0.30;0.10;;;6.30;99.90;;;;;;5071688;28;20526;-89
2021/12/30 03:32:41;;;;;;;0.40;0.40;;;6.40;99.90;;;;;;5069743;28;20438;-88
2021/12/30 03:35:09;;;;;;;0.30;0.20;;;6.30;99.90;;;;;;5066021;28;20512;-90
2021/12/30 03:37:37;;;;;;;0.30;0.10;;;6.30;99.90;;;;;;5064934;28;20484;-89
2021/12/30 03:40:07;;;;;;;0.30;0.10;;;6.40;99.90;;;;;;5067154;28;20484;-89
2021/12/30 03:42:34;;;;;;;0.30;0.10;;;6.40;99.90;;;;;;5061314;28;20444;-88
2021/12/30 03:45:02;;;;;;;0.30;0.10;;;6.40;99.90;;;;;;5070601;28;20490;-90
2021/12/30 03:47:30;;;;;;;0.30;0.10;;;6.50;99.90;;;;;;5071802;28;20511;-88
2021/12/30 03:49:58;;;;;;;0.30;0.10;;;6.50;99.90;;;;;;5068729;28;20462;-90
2021/12/30 03:52:30;;;;;;;0.30;0.10;;;6.50;99.90;;;;;;5068836;28;20449;-89
2021/12/30 03:54:58;;;;;;;0.30;0.10;;;6.30;99.90;;;;;;5071356;28;20445;-89
2021/12/30 03:57:25;;;;;;;0.30;0.10;;;6.30;99.90;;;;;;5069277;28;20543;-89
2021/12/30 03:59:52;;;;;;;0.30;0.10;;;6.20;99.90;;;;;;5069622;28;20518;-90
2021/12/30 04:02:20;;;;;;;0.30;0.10;;;6.10;99.90;;;;;;5071079;28;20446;-90
2021/12/30 04:04:49;;;;;;;0.40;0.30;;;6.10;99.90;;;;;;5066609;28;20510;-91
2021/12/30 04:07:16;;;;;;;0.30;0.20;;;6.10;99.90;;;;;;5069293;28;20516;-90
2021/12/30 04:09:43;;;;;;;0.30;0.10;;;6.20;99.90;;;;;;5069859;28;20917;-90
2021/12/30 04:12:10;;;;;;;0.30;0.10;;;6.20;99.90;;;;;;5069958;28;20439;-89
2021/12/30 04:14:38;;;;;;;0.40;0.40;;;6.20;99.90;;;;;;5066448;28;21093;-91
2021/12/30 04:17:06;;;;;;;0.30;0.10;;;6.40;99.90;;;;;;5070742;28;20451;-91
2021/12/30 04:19:33;;;;;;;0.30;0.20;;;6.60;99.90;;;;;;5068734;28;20538;-91
2021/12/30 04:22:01;;;;;;;0.30;0.10;;;6.60;99.90;;;;;;5068242;28;20504;-91
2021/12/30 04:24:29;;;;;;;0.30;0.10;;;6.70;99.90;;;;;;5068328;28;20512;-90
2021/12/30 04:26:56;;;;;;;1.07;0.47;;;6.70;99.90;;;;;;5069397;28;20462;-91
2021/12/30 04:29:24;;;;;;;0.30;0.20;;;6.80;99.90;;;;;;5070433;28;20447;-90
2021/12/30 04:31:51;;;;;;;0.30;0.20;;;6.80;99.90;;;;;;5070422;28;20436;-90
2021/12/30 04:34:19;;;;;;;0.30;0.20;;;6.80;99.90;;;;;;5066052;28;20426;-90
2021/12/30 04:36:46;;;;;;;0.30;0.10;;;6.80;99.90;;;;;;5065025;28;20465;-91
2021/12/30 04:39:16;;;;;;;0.30;0.10;;;6.90;99.90;;;;;;5066133;28;21081;-91
2021/12/30 04:41:44;;;;;;;0.30;0.10;;;6.90;99.90;;;;;;5070099;28;20441;-92
2021/12/30 04:44:11;;;;;;;0.30;0.20;;;6.80;99.90;;;;;;5069064;28;20447;-90
2021/12/30 04:46:38;;;;;;;0.30;0.10;;;6.80;99.90;;;;;;5071021;28;20459;-90
2021/12/30 04:49:05;;;;;;;0.30;0.20;;;6.90;99.90;;;;;;5058747;28;20456;-89
2021/12/30 04:51:32;;;;;;;0.30;0.10;;;6.90;99.90;;;;;;5086816;28;20479;-89
2021/12/30 04:54:00;;;;;;;0.30;0.20;;;7.00;99.90;;;;;;5084174;28;20440;-87
2021/12/30 04:56:29;;;;;;;0.30;0.20;;;7.00;99.90;;;;;;5086972;28;20861;-88
2021/12/30 04:58:56;;;;;;;0.30;0.20;;;7.00;99.90;;;;;;5088372;28;20508;-90
2021/12/30 05:01:23;;;;;;;0.30;0.10;;;7.00;99.90;;;;;;5074022;28;20446;-89
2021/12/30 05:03:50;;;;;;;0.30;0.17;;;7.10;99.90;;;;;;5062560;28;20794;-88
2021/12/30 05:06:17;;;;;;;0.30;0.10;;;7.10;99.90;;;;;;5069343;28;20436;-91
2021/12/30 05:08:44;;;;;;;0.30;0.10;;;7.10;99.90;;;;;;5069609;28;20453;-91
2021/12/30 05:11:11;;;;;;;0.30;0.20;;;7.10;99.90;;;;;;5066506;28;20496;-89
2021/12/30 05:13:39;;;;;;;0.30;0.10;;;7.10;99.90;;;;;;5067156;28;20454;-90
2021/12/30 05:16:06;;;;;;;0.70;0.70;;;7.10;99.90;;;;;;5067040;28;20543;-90
2021/12/30 05:18:34;;;;;;;0.30;0.20;;;7.10;99.90;;;;;;5057632;28;20544;-92
2021/12/30 05:21:04;;;;;;;0.30;0.10;;;7.10;99.90;;;;;;5065630;28;20466;-91
2021/12/30 05:23:31;;;;;;;0.30;0.10;;;7.20;99.90;;;;;;5070003;28;20553;-90
2021/12/30 05:25:59;;;;;;;0.30;0.10;;;7.20;99.90;;;;;;5069797;28;20536;-91
2021/12/30 05:28:26;;;;;;;0.30;0.20;;;7.20;99.90;;;;;;5069074;28;20974;-90
2021/12/30 05:30:55;;;;;;;0.73;0.73;;;7.20;99.90;;;;;;5060439;28;20891;-91
2021/12/30 05:33:22;;;;;;;0.30;0.10;;;7.20;99.90;;;;;;5053915;28;20902;-91
2021/12/30 05:35:49;;;;;;;0.30;0.10;;;7.20;99.90;;;;;;5069980;28;20466;-91
2021/12/30 05:38:17;;;;;;;0.30;0.13;;;7.20;99.90;;;;;;5062697;28;20880;-90
2021/12/30 05:40:45;;;;;;;0.30;0.10;;;7.20;99.90;;;;;;5066179;28;20526;-91
2021/12/30 05:43:12;;;;;;;0.30;0.20;;;7.10;99.90;;;;;;5066128;28;20550;-91
2021/12/30 05:45:39;;;;;;;0.40;0.33;;;7.10;99.90;;;;;;5060917;28;20938;-90
2021/12/30 05:48:07;;;;;;;0.30;0.10;;;7.10;99.90;;;;;;5063177;28;20455;-91
2021/12/30 05:50:34;;;;;;;0.43;0.43;;;7.10;99.90;;;;;;5063487;28;20440;-89
2021/12/30 05:53:01;;;;;;;0.30;0.10;;;7.20;99.90;;;;;;5068757;28;20442;-89
2021/12/30 05:55:29;;;;;;;0.30;0.20;;;7.20;99.90;;;;;;5069761;28;20452;-91
2021/12/30 05:57:57;;;;;;;0.30;0.10;;;7.20;99.90;;;;;;5069951;28;20480;-91
2021/12/30 06:00:26;;;;;;;0.60;0.60;;;7.20;99.90;;;;;;5069542;28;20541;-90
2021/12/30 06:02:53;;;;;;;0.30;0.10;;;7.10;99.90;;;;;;5069291;28;20458;-91
2021/12/30 06:05:22;;;;;;;0.43;0.43;;;7.10;99.90;;;;;;5070070;28;20975;-91
2021/12/30 06:07:49;;;;;;;0.30;0.10;;;7.00;99.90;;;;;;5069505;28;20506;-90
2021/12/30 06:10:17;;;;;;;0.40;0.30;;;7.10;99.90;;;;;;5068086;28;20509;-91
2021/12/30 06:12:45;;;;;;;0.30;0.17;;;7.10;99.90;;;;;;5070101;28;20783;-94
2021/12/30 06:15:13;;;;;;;0.30;0.10;;;7.10;99.90;;;;;;5070126;28;20458;-90
2021/12/30 06:17:41;;;;;;;0.30;0.20;;;7.10;99.90;;;;;;5069973;28;20502;-90
2021/12/30 06:20:10;;;;;;;0.30;0.10;;;7.10;99.90;;;;;;5066817;28;20486;-89
2021/12/30 06:22:39;;;;;;;0.30;0.10;;;7.10;99.90;;;;;;5070185;28;20595;-89
2021/12/30 06:25:07;;;;;;;0.30;0.20;;;7.30;99.90;;;;;;5070215;28;20455;-88
2021/12/30 06:27:34;;;;;;;0.30;0.17;;;7.40;99.90;;;;;;5082259;28;20447;-90
2021/12/30 06:30:01;;;;;;;0.30;0.10;;;7.60;99.90;;;;;;5093883;28;20512;-89
2021/12/30 06:32:28;;;;;;;0.30;0.20;;;7.60;99.90;;;;;;5094000;28;20504;-89
2021/12/30 06:34:55;;;;;;;0.30;0.20;;;7.70;99.90;;;;;;5078938;28;20432;-90
2021/12/30 06:37:22;;;;;;;0.40;0.30;;;7.70;99.90;;;;;;5073632;28;20451;-90
2021/12/30 06:39:50;;;;;;;0.30;0.10;;;7.80;99.90;;;;;;5058574;28;20502;-89
2021/12/30 06:42:17;;;;;;;0.63;0.50;;;7.70;99.90;;;;;;5054506;28;20463;-89
2021/12/30 06:44:44;;;;;;;0.30;0.10;;;7.70;99.90;;;;;;5072936;28;20505;-91
2021/12/30 06:47:12;;;;;;;0.30;0.10;;;7.60;99.90;;;;;;5074719;28;20462;-91
2021/12/30 06:49:44;;;;;;;0.30;0.10;;;7.60;99.90;;;;;;5076144;28;21227;-95
2021/12/30 06:52:12;;;;;;;0.40;0.30;;;7.70;99.90;;;;;;5076464;28;20462;-91
2021/12/30 06:54:40;;;;;;;0.30;0.20;;;7.60;99.90;;;;;;5075781;28;20452;-90
2021/12/30 06:57:12;;;;;;;0.30;0.20;;;7.50;99.90;;;;;;5061761;28;20497;-90
2021/12/30 06:59:39;;;;;;;0.30;0.20;;;7.50;99.90;;;;;;5060336;28;20543;-90
2021/12/30 07:02:07;;;;;;;0.30;0.10;;;7.40;99.90;;;;;;5073284;28;20456;-85
2021/12/30 07:04:35;;;;;;;0.30;0.20;;;7.50;99.90;;;;;;5074234;28;20540;-89
2021/12/30 07:07:02;;;;;;;0.30;0.10;;;7.40;99.90;;;;;;5059155;28;20463;-88
2021/12/30 07:09:29;;;;;;;2.00;0.30;;;7.50;99.90;;;;;;5056623;28;20467;-91
2021/12/30 07:11:56;;;;;;;0.30;0.10;;;7.50;99.90;;;;;;5062682;28;20440;-87
2021/12/30 07:14:25;;;;;;;0.30;0.20;;;7.50;99.90;;;;;;5061745;28;20803;-88
2021/12/30 07:16:52;;;;;;;0.30;0.23;;;7.60;99.90;;;;;;5061473;28;20955;-88
2021/12/30 07:19:20;;;;;;;0.30;0.20;;;7.80;99.90;;;;;;5057889;28;20979;-86
2021/12/30 07:21:47;;;;;;;0.30;0.10;;;7.80;99.90;;;;;;5068591;28;20938;-86
2021/12/30 07:24:14;;;;;;;0.40;0.30;;;7.80;99.90;;;;;;5072105;28;20455;-86
2021/12/30 07:26:41;;;;;;;0.30;0.10;;;7.80;99.90;;;;;;5073200;28;20443;-84
2021/12/30 07:29:08;;;;;;;0.30;0.10;;;7.90;99.90;;;;;;5069975;28;20537;-84
2021/12/30 07:31:36;;;;;;;0.93;0.80;;;8.00;99.90;;;;;;5062854;28;20470;-85
2021/12/30 07:34:03;;;;;;;0.30;0.10;;;8.00;99.90;;;;;;5068838;28;20508;-84
2021/12/30 07:36:30;;;;;;;0.30;0.10;;;8.00;99.90;;;;;;5063860;28;20449;-85
2021/12/30 07:38:57;;;;;;;0.30;0.20;;;8.10;99.90;;;;;;5070273;28;20829;-84
2021/12/30 07:41:24;;;;;;;0.30;0.10;;;8.20;99.90;;;;;;5072290;28;20440;-85
2021/12/30 07:43:51;;;;;;;0.30;0.10;;;8.40;99.90;;;;;;5060107;28;20467;-84
2021/12/30 07:46:18;;;;;;;0.30;0.10;;;8.60;99.90;;;;;;5065299;28;20452;-84
2021/12/30 07:48:47;;;;;;;0.30;0.30;;;8.70;99.90;;;;;;5063028;28;20448;-84
2021/12/30 07:51:14;;;;;;;0.40;0.30;;;8.80;99.90;;;;;;5071932;28;20933;-87
2021/12/30 07:53:41;;;;;;;0.30;0.20;;;8.90;99.90;;;;;;5071028;28;20527;-85
2021/12/30 07:56:08;;;;;;;0.30;0.20;;;9.00;99.90;;;;;;5071951;28;20838;-86
2021/12/30 07:58:35;;;;;;;0.30;0.20;;;9.20;99.90;;;;;;5072715;28;20464;-86
2021/12/30 08:01:03;;;;;;;0.30;0.10;;;9.30;99.90;;;;;;5071934;28;20779;-84
2021/12/30 08:03:29;;;;;;;0.30;0.20;;;9.40;99.90;;;;;;5058281;28;20797;-85
2021/12/30 08:05:58;;;;;;;0.30;0.10;;;9.40;99.90;;;;;;5088839;28;20482;-86
2021/12/30 08:08:25;;;;;;;0.30;0.10;;;9.30;99.90;;;;;;5096640;28;20435;-85
2021/12/30 08:10:53;;;;;;;0.30;0.13;;;9.40;99.90;;;;;;5096936;28;20462;-85
2021/12/30 08:13:20;;;;;;;0.30;0.20;;;9.60;99.90;;;;;;5090873;28;20444;-85
2021/12/30 08:15:47;;;;;;;0.30;0.17;;;9.70;99.90;;;;;;5073731;28;20500;-86
2021/12/30 08:18:14;;;;;;;2.37;2.17;;;9.70;99.90;;;;;;5079251;28;20463;-86
2021/12/30 08:20:41;;;;;;;1.07;0.97;;;9.80;99.90;;;;;;5072005;28;20875;-86
2021/12/30 08:23:10;;;;;;;0.50;0.30;;;10.00;99.90;;;;;;5072407;28;20447;-88
2021/12/30 08:25:37;;;;;;;0.30;0.20;;;10.10;99.90;;;;;;5075199;28;20456;-86
2021/12/30 08:28:04;;;;;;;1.17;1.07;;;10.20;99.90;;;;;;5073004;28;20497;-85
2021/12/30 08:30:31;;;;;;;0.30;0.20;;;10.40;99.90;;;;;;5073182;28;20457;-86
2021/12/30 08:32:58;;;;;;;0.30;0.20;;;10.50;99.90;;;;;;5072596;28;20500;-84
2021/12/30 08:35:25;;;;;;;0.30;0.30;;;10.50;99.90;;;;;;5073896;28;20447;-85
2021/12/30 08:37:54;;;;;;;0.30;0.30;;;10.50;99.90;;;;;;5082740;28;20504;-85
2021/12/30 08:40:23;;;;;;;0.30;0.20;;;10.50;99.90;;;;;;5091277;28;20474;-87
2021/12/30 08:42:50;;;;;;;1.37;1.27;;;10.50;99.90;;;;;;5078963;28;20464;-86
2021/12/30 08:45:18;;;;;;;0.30;0.17;;;10.40;99.90;;;;;;5067037;28;20549;-86
2021/12/30 08:47:46;;;;;;;0.30;0.17;;;10.40;99.90;;;;;;5083747;28;20480;-83
2021/12/30 08:50:15;;;;;;;0.30;0.20;;;10.40;99.90;;;;;;5081851;28;20444;-85
2021/12/30 08:52:43;;;;;;;0.30;0.10;;;10.40;99.90;;;;;;5089436;28;20451;-84
2021/12/30 08:55:13;;;;;;;0.30;0.20;;;10.40;99.90;;;;;;5085785;28;20509;-84
2021/12/30 08:57:42;;;;;;;0.30;0.20;;;10.40;99.90;;;;;;5081056;28;20452;-85
2021/12/30 09:00:12;;;;;;;0.30;0.20;;;10.50;99.90;;;;;;5079205;28;20578;-85
2021/12/30 09:02:40;;;;;;;0.30;0.20;;;10.60;99.90;;;;;;5073377;28;20456;-85
2021/12/30 09:05:08;;;;;;;0.30;0.20;;;10.60;99.90;;;;;;5071409;28;20440;-84
2021/12/30 09:07:35;;;;;;;0.30;0.20;;;10.70;99.90;;;;;;5079829;28;20442;-85
2021/12/30 09:10:02;;;;;;;0.40;0.30;;;10.70;99.90;;;;;;5072050;28;20545;-86
2021/12/30 09:12:29;;;;;;;0.30;0.10;;;10.80;99.90;;;;;;5080814;28;20443;-85
2021/12/30 09:14:58;;;;;;;0.73;0.73;;;10.90;99.90;;;;;;5075586;28;20837;-85
2021/12/30 09:17:25;;;;;;;0.30;0.20;;;11.00;99.90;;;;;;5081835;28;20464;-85
2021/12/30 09:19:52;;;;;;;0.30;0.20;;;11.10;99.90;;;;;;5070964;28;20474;-84
2021/12/30 09:22:18;;;;;;;0.30;0.20;;;11.10;99.90;;;;;;5077864;28;20444;-84
2021/12/30 09:24:48;;;;;;;0.30;0.20;;;11.20;99.90;;;;;;5078142;28;20505;-85
2021/12/30 09:27:15;;;;;;;0.30;0.20;;;11.20;99.90;;;;;;5070256;28;20478;-85
2021/12/30 09:29:42;;;;;;;0.30;0.20;;;11.20;99.90;;;;;;5068734;28;20846;-87
2021/12/30 09:32:11;;;;;;;0.30;0.20;;;11.20;99.90;;;;;;5070893;28;20456;-88
2021/12/30 09:34:38;;;;;;;0.30;0.20;;;11.30;99.90;;;;;;5053297;28;20468;-88
2021/12/30 09:37:09;;;;;;;0.30;0.20;;;11.40;99.90;;;;;;5054043;28;20585;-88
2021/12/30 09:39:36;;;;;;;0.30;0.20;;;11.40;99.90;;;;;;5066925;28;20522;-87
2021/12/30 09:42:04;;;;;;;0.30;0.20;;;11.50;99.90;;;;;;5072555;28;20462;-87
2021/12/30 09:44:31;;;;;;;0.80;0.40;;;11.70;99.90;;;;;;5086505;28;20454;-89
2021/12/30 09:46:59;;;;;;;0.30;0.20;;;11.80;99.90;;;;;;5094000;28;20476;-87
2021/12/30 09:49:28;;;;;;;0.30;0.20;;;11.90;99.90;;;;;;5095760;28;20439;-86
2021/12/30 09:51:55;;;;;;;0.30;0.10;;;12.00;99.90;;;;;;5109412;28;20556;-87
2021/12/30 09:54:24;;;;;;;0.30;0.20;;;12.00;99.90;;;;;;5090432;28;20905;-87
2021/12/30 09:56:51;;;;;;;0.30;0.20;;;12.10;99.90;;;;;;5085579;28;20554;-90
2021/12/30 09:59:19;;;;;;;0.30;0.20;;;12.00;99.90;;;;;;5074352;28;20493;-88
2021/12/30 10:01:46;;;;;;;0.30;0.20;;;12.00;99.90;;;;;;5069020;28;20463;-88
2021/12/30 10:04:14;;;;;;;0.30;0.20;;;12.00;99.90;;;;;;5057189;28;20484;-88
2021/12/30 10:06:49;;;;;;;0.30;0.20;;;12.00;99.90;;;;;;5062011;28;20456;-88
2021/12/30 10:09:17;;;;;;;0.30;0.20;;;12.00;99.90;;;;;;5067805;28;20455;-91
2021/12/30 10:11:46;;;;;;;0.30;0.20;;;11.90;99.90;;;;;;5069011;28;20460;-89
2021/12/30 10:14:25;;;;;;;0.30;0.20;;;11.90;99.90;;;;;;5070099;28;21035;-87
2021/12/30 10:16:52;;;;;;;0.30;0.20;;;11.90;99.90;;;;;;5073186;28;20464;-90
2021/12/30 10:19:27;;;;;;;0.30;0.20;;;11.80;99.90;;;;;;5075934;28;20443;-87
2021/12/30 10:21:55;;;;;;;0.30;0.10;;;11.80;99.90;;;;;;5085631;28;20518;-87
2021/12/30 10:24:22;;;;;;;0.30;0.20;;;11.80;99.90;;;;;;5081998;28;20496;-87
2021/12/30 10:26:51;;;;;;;0.30;0.20;;;11.90;99.90;;;;;;5076324;28;20458;-90
2021/12/30 10:29:18;;;;;;;0.40;0.20;;;12.00;99.90;;;;;;5071985;28;20986;-87
2021/12/30 10:31:45;;;;;;;0.30;0.10;;;11.90;99.90;;;;;;5069080;28;20444;-88
2021/12/30 10:34:12;;;;;;;0.30;0.20;;;12.00;99.90;;;;;;5051843;28;20456;-87
2021/12/30 10:36:42;;;;;;;0.30;0.20;;;12.00;99.90;;;;;;5068356;28;20458;-88
2021/12/30 10:39:20;;;;;;;0.30;0.10;;;11.90;99.90;;;;;;5074036;28;20549;-87
2021/12/30 10:41:49;;;;;;;0.40;0.20;;;12.00;99.90;;;;;;5065498;28;20471;-87
2021/12/30 10:44:16;;;;;;;0.30;0.20;;;12.00;99.90;;;;;;5066978;28;20448;-86
2021/12/30 10:46:43;;;;;;;0.37;0.30;;;12.00;99.90;;;;;;5069466;28;20525;-88
2021/12/30 10:49:11;;;;;;;0.30;0.13;;;11.90;99.90;;;;;;5069453;28;20490;-85
2021/12/30 10:51:41;;;;;;;0.60;0.30;;;11.90;99.90;;;;;;5069400;28;20508;-86
2021/12/30 10:54:18;;;;;;;0.30;0.20;;;11.90;99.90;;;;;;5069489;28;20444;-86
2021/12/30 10:56:47;;;;;;;0.30;0.20;;;11.80;99.90;;;;;;5065505;28;20466;-87
2021/12/30 10:59:21;;;;;;;0.30;0.20;;;11.80;99.90;;;;;;5074069;28;20869;-90
2021/12/30 11:01:51;;;;;;;0.30;0.20;;;11.80;99.90;;;;;;5086546;28;21140;-86
2021/12/30 11:04:19;;;;;;;0.30;0.20;;;11.80;99.90;;;;;;5075200;28;20444;-85
2021/12/30 11:06:47;;;;;;;0.40;0.30;;;11.80;99.90;;;;;;5069664;28;20456;-86
2021/12/30 11:09:19;;;;;;;0.30;0.20;;;11.90;99.90;;;;;;5080181;28;20447;-86
2021/12/30 11:11:49;;;;;;;0.30;0.20;;;11.90;99.90;;;;;;5067532;28;20463;-85
2021/12/30 11:14:19;;;;;;;0.30;0.20;;;11.90;99.90;;;;;;5070260;28;20512;-87
2021/12/30 11:17:04;;;;;;;0.40;0.30;;;11.80;99.90;;;;;;5076830;28;21091;-87
2021/12/30 11:19:34;;;;;;;0.30;0.20;;;11.80;99.90;;;;;;5081656;28;20459;-86
2021/12/30 11:22:06;;;;;;;0.30;0.20;;;11.80;99.90;;;;;;5076459;28;20467;-86
2021/12/30 11:24:35;;;;;;;0.30;0.20;;;11.80;99.90;;;;;;5087260;28;20428;-86
2021/12/30 11:27:05;;;;;;;0.73;0.73;;;11.90;99.90;;;;;;5093391;28;20486;-86
2021/12/30 11:29:34;;;;;;;0.30;0.20;;;11.90;99.90;;;;;;5101486;28;20456;-85
2021/12/30 11:32:01;;;;;;;0.30;0.20;;;12.10;99.90;;;;;;5087397;28;20512;-89
2021/12/30 11:34:29;;;;;;;0.30;0.20;;;12.10;99.90;;;;;;5078084;28;20508;-90
2021/12/30 11:36:56;;;;;;;0.30;0.20;;;12.20;99.90;;;;;;5077117;28;20551;-86
2021/12/30 11:39:26;;;;;;;0.30;0.20;;;12.20;99.90;;;;;;5080077;28;20797;-88
2021/12/30 11:41:59;;;;;;;0.30;0.20;;;12.20;99.90;;;;;;5077625;28;20483;-88
2021/12/30 11:44:43;;;;;;;0.30;0.20;;;12.20;99.90;;;;;;5076282;28;21268;-88
2021/12/30 11:47:41;;;;;;;0.30;0.20;;;12.20;99.90;;;;;;5072306;28;20556;-90
2021/12/30 11:50:14;;;;;;;0.30;0.20;;;12.20;99.90;;;;;;5085928;28;20447;-88
2021/12/30 11:52:59;;;;;;;0.30;0.20;;;12.20;99.90;;;;;;5076672;28;20466;-88
2021/12/30 11:55:54;;;;;;;0.30;0.20;;;12.20;99.90;;;;;;5082309;28;20494;-88
2021/12/30 11:58:47;;;;;;;0.30;0.20;;;12.30;99.90;;;;;;5071267;28;20448;-87
2021/12/30 12:01:38;;;;;;;0.30;0.20;;;12.30;99.90;;;;;;5071070;28;20487;-88
2021/12/30 12:04:26;;;;;;;0.30;0.20;;;12.40;99.90;;;;;;5067669;28;20447;-88
2021/12/30 12:07:04;;;;;;;0.50;0.30;;;12.50;99.90;;;;;;5072166;28;20955;-88
2021/12/30 12:09:40;;;;;;;0.30;0.20;;;12.50;99.90;;;;;;5082567;28;20616;-88
2021/12/30 12:12:09;;;;;;;0.30;0.20;;;12.50;99.90;;;;;;5076446;28;20962;-88
2021/12/30 12:14:41;;;;;;;0.30;0.20;;;12.60;99.90;;;;;;5080409;28;20521;-90
2021/12/30 12:17:10;;;;;;;0.30;0.20;;;12.50;99.90;;;;;;5077978;28;20486;-87
2021/12/30 12:19:40;;;;;;;0.30;0.20;;;12.50;99.90;;;;;;5075393;28;20797;-88
2021/12/30 12:22:10;;;;;;;0.30;0.20;;;12.50;99.90;;;;;;5076227;28;20496;-88
2021/12/30 12:24:41;;;;;;;0.30;0.20;;;12.50;99.90;;;;;;5081860;28;20460;-88
2021/12/30 12:27:12;;;;;;;1.90;0.30;;;12.40;99.90;;;;;;5082184;28;20792;-88
2021/12/30 12:29:48;;;;;;;0.30;0.20;;;12.40;99.90;;;;;;5072669;28;20448;-88
2021/12/30 12:32:18;;;;;;;0.30;0.20;;;12.30;99.90;;;;;;5070831;28;20545;-88
2021/12/30 12:34:50;;;;;;;0.30;0.20;;;12.20;99.90;;;;;;5071794;28;20456;-88
2021/12/30 12:37:48;;;;;;;0.30;0.20;;;12.00;99.90;;;;;;5080455;28;20450;-88
2021/12/30 12:40:37;;;;;;;0.30;0.20;;;11.90;99.90;;;;;;5062284;28;20491;-87
2021/12/30 12:43:17;;;;;;;0.30;0.20;;;11.80;99.90;;;;;;5070246;28;20452;-88
2021/12/30 12:46:00;;;;;;;0.30;0.20;;;11.70;99.90;;;;;;5074114;28;20452;-88
2021/12/30 12:48:33;;;;;;;0.30;0.10;;;11.50;99.90;;;;;;5078235;28;20516;-88
2021/12/30 12:51:02;;;;;;;0.30;0.20;;;11.40;99.90;;;;;;5079306;28;20819;-88
2021/12/30 12:54:02;;;;;;;0.30;0.10;;;11.30;99.90;;;;;;5073924;28;20544;-88
2021/12/30 12:56:33;;;;;;;0.30;0.20;;;11.20;99.90;;;;;;5073535;28;20452;-87
2021/12/30 12:59:08;;;;;;;0.30;0.10;;;11.10;99.90;;;;;;5070940;28;20452;-88
2021/12/30 13:01:38;;;;;;;0.30;0.20;;;11.10;99.90;;;;;;5085530;28;20467;-88